Terminal Aerodrome Forecast
Issued by NWS Billings, MT

Home | Current Version | Previous Version | Text Only | Print | Product List | Glossary Off
Versions: 1 2 3 4 5 6 7 8 9 10 11 12 13 14 15 16 17

000
FTUS45 KBYZ 231740
TAFMLS
TAF
KMLS 231740Z 2318/2418 02015G25KT 5SM -RA BR SCT005 OVC015
      TEMPO 2318/2322 2SM -RA BR
     FM240200 32011KT 5SM -SHRA BKN020 OVC040
     FM240600 32006KT P6SM SCT030=

USA.gov is the U.S. government's official web portal to all federal, state and local government web resources and services.